sensor_id;sensor_type;location;lat;lon;timestamp;P1;durP1;ratioP1;P2;durP2;ratioP2
50689;SDS011;54375;48.298;11.238;2023-07-08T00:01:12;10.50;;;5.85;;
50689;SDS011;54375;48.298;11.238;2023-07-08T00:16:19;11.32;;;6.70;;
50689;SDS011;54375;48.298;11.238;2023-07-08T00:31:22;12.40;;;6.90;;
50689;SDS011;54375;48.298;11.238;2023-07-08T00:46:37;12.18;;;6.55;;
50689;SDS011;54375;48.298;11.238;2023-07-08T01:01:46;13.85;;;7.13;;
50689;SDS011;54375;48.298;11.238;2023-07-08T01:16:51;10.07;;;6.40;;
50689;SDS011;54375;48.298;11.238;2023-07-08T01:31:55;11.30;;;7.00;;
50689;SDS011;54375;48.298;11.238;2023-07-08T01:46:59;11.10;;;6.28;;
50689;SDS011;54375;48.298;11.238;2023-07-08T02:02:06;9.48;;;6.40;;
50689;SDS011;54375;48.298;11.238;2023-07-08T02:17:08;10.40;;;6.30;;
50689;SDS011;54375;48.298;11.238;2023-07-08T02:32:10;11.10;;;6.15;;
50689;SDS011;54375;48.298;11.238;2023-07-08T02:47:12;12.00;;;6.68;;
50689;SDS011;54375;48.298;11.238;2023-07-08T03:02:15;10.73;;;6.60;;
50689;SDS011;54375;48.298;11.238;2023-07-08T03:17:17;12.60;;;6.82;;
50689;SDS011;54375;48.298;11.238;2023-07-08T03:32:19;9.85;;;5.57;;
50689;SDS011;54375;48.298;11.238;2023-07-08T03:47:21;10.93;;;6.18;;
50689;SDS011;54375;48.298;11.238;2023-07-08T04:02:23;8.38;;;5.35;;
50689;SDS011;54375;48.298;11.238;2023-07-08T04:17:27;12.05;;;6.78;;
50689;SDS011;54375;48.298;11.238;2023-07-08T04:32:29;8.50;;;5.70;;
50689;SDS011;54375;48.298;11.238;2023-07-08T04:47:31;14.13;;;7.18;;
50689;SDS011;54375;48.298;11.238;2023-07-08T05:02:34;10.77;;;6.55;;
50689;SDS011;54375;48.298;11.238;2023-07-08T05:17:37;15.70;;;7.30;;
50689;SDS011;54375;48.298;11.238;2023-07-08T05:32:40;10.02;;;6.35;;
50689;SDS011;54375;48.298;11.238;2023-07-08T05:47:42;9.13;;;6.13;;
50689;SDS011;54375;48.298;11.238;2023-07-08T06:02:45;9.25;;;5.55;;
50689;SDS011;71367;48.298;11.238;2023-07-08T06:23:35;9.70;;;5.50;;
50689;SDS011;71367;48.298;11.238;2023-07-08T06:38:37;10.07;;;5.65;;
50689;SDS011;71367;48.298;11.238;2023-07-08T06:53:39;9.73;;;5.80;;
50689;SDS011;71367;48.298;11.238;2023-07-08T07:08:42;10.73;;;5.75;;
50689;SDS011;71367;48.298;11.238;2023-07-08T07:23:44;8.18;;;5.55;;
50689;SDS011;71367;48.298;11.238;2023-07-08T07:38:47;10.88;;;7.10;;
50689;SDS011;71367;48.298;11.238;2023-07-08T07:53:49;9.07;;;6.05;;
50689;SDS011;71367;48.298;11.238;2023-07-08T08:08:52;10.77;;;6.82;;
50689;SDS011;71367;48.298;11.238;2023-07-08T08:23:54;11.50;;;6.55;;
50689;SDS011;71367;48.298;11.238;2023-07-08T08:38:57;15.67;;;8.43;;
50689;SDS011;71367;48.298;11.238;2023-07-08T08:53:59;11.82;;;8.25;;
50689;SDS011;71367;48.298;11.238;2023-07-08T09:09:03;13.65;;;7.72;;
50689;SDS011;71367;48.298;11.238;2023-07-08T09:24:14;15.67;;;7.23;;
50689;SDS011;71367;48.298;11.238;2023-07-08T09:39:20;10.97;;;6.77;;
50689;SDS011;71367;48.298;11.238;2023-07-08T09:54:23;10.00;;;6.93;;
50689;SDS011;71367;48.298;11.238;2023-07-08T10:09:26;10.03;;;6.37;;
50689;SDS011;71367;48.298;11.238;2023-07-08T10:24:36;11.33;;;5.67;;
50689;SDS011;71367;48.298;11.238;2023-07-08T10:39:53;10.03;;;6.40;;
50689;SDS011;71367;48.298;11.238;2023-07-08T11:10:31;10.23;;;6.27;;
50689;SDS011;71367;48.298;11.238;2023-07-08T11:25:37;10.57;;;6.43;;
50689;SDS011;71367;48.298;11.238;2023-07-08T11:56:20;10.23;;;7.10;;
50689;SDS011;71367;48.298;11.238;2023-07-08T12:11:26;8.70;;;5.57;;
50689;SDS011;71367;48.298;11.238;2023-07-08T12:26:32;12.47;;;6.30;;
50689;SDS011;71367;48.298;11.238;2023-07-08T12:41:36;7.87;;;4.63;;
50689;SDS011;71367;48.298;11.238;2023-07-08T13:11:42;9.67;;;4.67;;
50689;SDS011;71367;48.298;11.238;2023-07-08T13:26:46;8.07;;;5.30;;
50689;SDS011;71367;48.298;11.238;2023-07-08T13:41:50;10.03;;;5.23;;
50689;SDS011;71367;48.298;11.238;2023-07-08T13:56:53;9.80;;;4.77;;
50689;SDS011;71367;48.298;11.238;2023-07-08T14:11:55;11.60;;;5.53;;
50689;SDS011;71367;48.298;11.238;2023-07-08T14:26:58;12.97;;;5.53;;
50689;SDS011;71367;48.298;11.238;2023-07-08T14:42:00;11.03;;;5.20;;
50689;SDS011;71367;48.298;11.238;2023-07-08T14:57:03;9.03;;;3.80;;
50689;SDS011;71367;48.298;11.238;2023-07-08T15:12:09;8.53;;;4.00;;
50689;SDS011;71367;48.298;11.238;2023-07-08T15:27:12;14.00;;;4.83;;
50689;SDS011;71367;48.298;11.238;2023-07-08T15:42:15;9.27;;;4.33;;
50689;SDS011;71367;48.298;11.238;2023-07-08T15:57:18;6.70;;;3.60;;
50689;SDS011;71367;48.298;11.238;2023-07-08T16:12:20;10.73;;;3.80;;
50689;SDS011;71367;48.298;11.238;2023-07-08T16:27:23;8.70;;;3.70;;
50689;SDS011;71367;48.298;11.238;2023-07-08T16:42:25;8.90;;;3.60;;
50689;SDS011;71367;48.298;11.238;2023-07-08T16:57:28;5.53;;;2.90;;
50689;SDS011;71367;48.298;11.238;2023-07-08T17:12:30;6.63;;;3.47;;
50689;SDS011;71367;48.298;11.238;2023-07-08T17:27:32;6.63;;;3.00;;
50689;SDS011;71367;48.298;11.238;2023-07-08T17:42:35;5.27;;;2.80;;
50689;SDS011;71367;48.298;11.238;2023-07-08T17:57:37;27.40;;;3.73;;
50689;SDS011;71367;48.298;11.238;2023-07-08T18:12:41;14.33;;;5.17;;
50689;SDS011;71367;48.298;11.238;2023-07-08T18:27:45;10.63;;;4.60;;
50689;SDS011;71367;48.298;11.238;2023-07-08T18:42:50;9.20;;;5.07;;
50689;SDS011;71367;48.298;11.238;2023-07-08T18:57:56;11.00;;;4.90;;
50689;SDS011;71367;48.298;11.238;2023-07-08T19:12:59;9.93;;;5.40;;
50689;SDS011;71367;48.298;11.238;2023-07-08T19:28:01;9.07;;;5.37;;
50689;SDS011;71367;48.298;11.238;2023-07-08T19:43:07;11.73;;;6.40;;
50689;SDS011;71367;48.298;11.238;2023-07-08T19:58:10;10.37;;;5.80;;
50689;SDS011;71367;48.298;11.238;2023-07-08T20:13:13;8.33;;;5.83;;
50689;SDS011;71367;48.298;11.238;2023-07-08T20:28:16;15.53;;;7.07;;
50689;SDS011;71367;48.298;11.238;2023-07-08T20:43:27;10.82;;;6.45;;
50689;SDS011;71367;48.298;11.238;2023-07-08T20:58:30;11.02;;;6.38;;
50689;SDS011;71367;48.298;11.238;2023-07-08T21:13:33;10.85;;;6.38;;
50689;SDS011;71367;48.298;11.238;2023-07-08T21:28:35;12.30;;;6.18;;
50689;SDS011;71367;48.298;11.238;2023-07-08T21:43:38;9.73;;;6.80;;
50689;SDS011;71367;48.298;11.238;2023-07-08T21:58:41;12.38;;;7.75;;
50689;SDS011;71367;48.298;11.238;2023-07-08T22:13:43;14.75;;;8.65;;
50689;SDS011;71367;48.298;11.238;2023-07-08T22:28:45;13.65;;;8.88;;
50689;SDS011;71367;48.298;11.238;2023-07-08T22:43:47;13.10;;;8.27;;
50689;SDS011;71367;48.298;11.238;2023-07-08T22:58:50;10.77;;;7.10;;
50689;SDS011;71367;48.298;11.238;2023-07-08T23:13:52;11.80;;;7.45;;
50689;SDS011;71367;48.298;11.238;2023-07-08T23:28:55;11.90;;;7.70;;
50689;SDS011;71367;48.298;11.238;2023-07-08T23:43:59;11.52;;;7.20;;
50689;SDS011;71367;48.298;11.238;2023-07-08T23:59:01;11.40;;;7.15;;
